• Join FlightAware (Why Join?)
  • Login
  • US Flag 
06:34AM EDT


 

Airport Tracker/Info


-or-


 

Live Flight TrackerFlight Track Log ✈ CHQ5046 ✈ 21-Apr-2013 ✈ KORD - KAZO

Flight Track Log - Related Links

Times and Time Zones

All times are in EDT time to prevent confusion due to time zone crossing. See the CHQ5046 flight status page for this flight to view local times or setup timezone preferences in your user account.

Time Position Orientation Groundspeed Altitude Reporting Facility
EDT Latitude Longitude Course Direction KTS MPH feet Rate Location/Type
06:44PM 41.9667 -87.8500 84° East 165 190 2,600  Level Chicago TRACON
06:45PM 41.9833 -87.7833 71° East 225 259 4,700 2,100 Climbing Chicago TRACON
06:46PM 42.0167 -87.6486 90° East  Level FlightAware Approximate
06:46PM 42.0000 -87.6833 77° East 277 319 6,600  Level Chicago TRACON
06:47PM 42.0310 -87.5690 37° Northeast  Level FlightAware Approximate
06:48PM 42.0405 -87.4817 84° East  Level FlightAware Approximate
06:48PM 42.0367 -87.4800 76° East 291 335 11,000  Level Chicago Center
06:49PM 42.0478 -87.3928 84° East  Level FlightAware Approximate
06:49PM 42.0567 -87.3708 76° East 300 345 11,000  Level Chicago Center
06:50PM 42.0761 -87.2642 76° East 296 341 11,000  Level Chicago Center
06:51PM 42.0950 -87.1581 76° East 293 337 11,000  Level Chicago Center
06:52PM 42.1144 -87.0475 77° East 302 348 11,000  Level Chicago Center
06:53PM 42.1178 -86.9142 88° East 299 344 11,100  Climbing Chicago Center
06:54PM 42.1231 -86.8050 86° East 296 341 11,100  Level Chicago Center
06:55PM 42.1269 -86.6881 87° East 295 339 11,100  Level Chicago Center
06:56PM 42.1300 -86.5836 88° East 299 344 11,100  Level Chicago Center
06:57PM 42.1331 -86.4731 88° East 297 342 11,100  Level Chicago Center
06:58PM 42.1378 -86.3622 87° East 297 342 11,100  Level Chicago Center
06:59PM 42.1408 -86.2294 88° East 295 339 11,100  Level Chicago Center
07:00PM 42.1447 -86.1186 87° East 296 341 11,100 -60 Level Chicago Center
07:01PM 42.1619 -86.0147 77° East 286 329 11,000 -1,020 Descending Chicago Center
07:02PM 42.1767 -85.9236 78° East 257 296 9,000 -2,040 Descending Chicago Center
07:03PM 42.2017 -85.8306 70° East 263 303 6,900 -2,040 Descending Chicago Center